Time;durP1;ratioP1;P1;durP2;ratioP2;P2;SDS_P1;SDS_P2;PMS_P1;PMS_P2;Temp;Humidity;BMP_temperature;BMP_pressure;BME280_temperature;BME280_humidity;BME280_pressure;Samples;Min_cycle;Max_cycle;Signal;HPM_P1;HPM_P2
2021/12/08 00:00:18;;;;;;;9.90;3.15;;;3.50;99.90;;;;;;5073471;28;20040;-74
2021/12/08 00:02:44;;;;;;;8.38;3.13;;;3.50;99.90;;;;;;5073300;28;20044;-75
2021/12/08 00:05:12;;;;;;;8.85;3.10;;;3.50;99.90;;;;;;5055628;28;20089;-74
2021/12/08 00:07:38;;;;;;;13.07;3.45;;;3.50;99.90;;;;;;5073170;28;20040;-74
2021/12/08 00:13:02;;;;;;;9.70;3.92;;;3.50;99.90;;;;;;5073180;28;20044;-75
2021/12/08 00:15:30;;;;;;;8.82;2.88;;;3.50;99.90;;;;;;5072823;28;20485;-74
2021/12/08 00:17:56;;;;;;;8.98;3.17;;;3.60;99.90;;;;;;5073113;28;20380;-75
2021/12/08 00:20:23;;;;;;;9.32;3.50;;;3.60;99.90;;;;;;5055451;28;20037;-74
2021/12/08 00:22:49;;;;;;;6.20;2.63;;;3.50;99.90;;;;;;5055391;28;20055;-74
2021/12/08 00:25:15;;;;;;;7.22;3.13;;;3.50;99.90;;;;;;5073001;28;20048;-75
2021/12/08 00:27:41;;;;;;;7.90;4.20;;;3.60;99.90;;;;;;5055154;28;20044;-75
2021/12/08 00:30:07;;;;;;;5.68;3.17;;;3.60;99.90;;;;;;5055083;28;20137;-75
2021/12/08 00:32:35;;;;;;;5.15;3.00;;;3.60;99.90;;;;;;5055348;28;20045;-75
2021/12/08 00:35:02;;;;;;;10.45;3.42;;;3.60;99.90;;;;;;5072847;28;20076;-74
2021/12/08 00:37:28;;;;;;;7.97;3.97;;;3.60;99.90;;;;;;5055218;28;20516;-74
2021/12/08 00:39:54;;;;;;;5.03;3.33;;;3.60;99.90;;;;;;5072881;28;20056;-75
2021/12/08 00:42:20;;;;;;;5.30;2.92;;;3.60;99.90;;;;;;5074271;28;20445;-76
2021/12/08 00:44:46;;;;;;;11.43;4.70;;;3.60;99.90;;;;;;5092875;28;20047;-75
2021/12/08 00:47:12;;;;;;;10.70;4.53;;;3.70;99.90;;;;;;5075044;28;20454;-75
2021/12/08 00:49:39;;;;;;;6.32;3.78;;;3.60;99.90;;;;;;5074639;28;20360;-75
2021/12/08 00:52:07;;;;;;;7.72;3.78;;;3.70;99.90;;;;;;5092815;28;20127;-75
2021/12/08 00:54:33;;;;;;;5.70;2.97;;;3.70;99.90;;;;;;5092898;28;20063;-76
2021/12/08 00:57:00;;;;;;;8.27;4.57;;;3.70;99.90;;;;;;5092710;28;20036;-76
2021/12/08 00:59:26;;;;;;;9.60;3.47;;;3.70;99.90;;;;;;5074801;28;20414;-76
2021/12/08 01:01:51;;;;;;;14.43;5.03;;;3.70;99.90;;;;;;5092579;28;20126;-75
2021/12/08 01:04:17;;;;;;;7.15;4.10;;;3.70;99.90;;;;;;5092663;28;20035;-77
2021/12/08 01:06:43;;;;;;;4.85;2.47;;;3.70;99.90;;;;;;5058697;28;20048;-76
2021/12/08 01:09:11;;;;;;;7.80;4.20;;;3.70;99.90;;;;;;5093637;28;20622;-75
2021/12/08 01:11:38;;;;;;;5.97;3.33;;;3.70;99.90;;;;;;5075970;28;20036;-76
2021/12/08 01:14:05;;;;;;;9.77;4.63;;;3.70;99.90;;;;;;5076507;28;20433;-76
2021/12/08 01:16:32;;;;;;;8.20;4.07;;;3.70;99.90;;;;;;5076031;28;20460;-73
2021/12/08 01:18:58;;;;;;;8.73;4.07;;;3.70;99.90;;;;;;5076745;28;20222;-76
2021/12/08 01:21:24;;;;;;;7.93;4.60;;;3.80;99.90;;;;;;5094604;28;20375;-73
2021/12/08 01:23:50;;;;;;;8.55;4.57;;;3.70;99.90;;;;;;5075672;28;20047;-75
2021/12/08 01:26:16;;;;;;;7.65;4.55;;;3.80;99.90;;;;;;5075412;28;20055;-75
2021/12/08 01:28:44;;;;;;;6.45;4.05;;;3.80;99.90;;;;;;5075120;28;20083;-75
2021/12/08 01:31:09;;;;;;;11.95;6.00;;;3.70;99.90;;;;;;5075150;28;20051;-76
2021/12/08 01:33:36;;;;;;;6.25;4.18;;;3.80;99.90;;;;;;5093084;28;20127;-76
2021/12/08 01:36:05;;;;;;;12.40;5.57;;;3.80;99.90;;;;;;5075522;28;20036;-76
2021/12/08 01:38:32;;;;;;;8.23;5.57;;;3.80;99.90;;;;;;5075307;28;20040;-75
2021/12/08 01:40:59;;;;;;;9.40;5.43;;;3.80;99.90;;;;;;5067021;28;20060;-76
2021/12/08 01:43:39;;;;;;;11.68;5.13;;;3.80;99.90;;;;;;5055535;28;20072;-76
2021/12/08 01:46:06;;;;;;;;;;;3.80;99.90;;;;;;5055421;28;20123;-75
2021/12/08 01:48:38;;;;;;;9.38;6.32;;;3.80;99.90;;;;;;5055017;28;19916;-74
2021/12/08 01:51:12;;;;;;;11.13;5.03;;;3.80;99.90;;;;;;5055410;28;20059;-74
2021/12/08 01:53:44;;;;;;;10.55;5.70;;;3.80;99.90;;;;;;5072386;28;20044;-75
2021/12/08 01:56:11;;;;;;;10.57;6.47;;;3.90;99.90;;;;;;5054792;28;20469;-76
2021/12/08 01:58:37;;;;;;;5.97;3.78;;;3.90;99.90;;;;;;5054560;28;20098;-76
2021/12/08 02:01:08;;;;;;;4.28;2.75;;;3.90;99.90;;;;;;5056997;28;20045;-76
2021/12/08 02:03:35;;;;;;;7.60;4.50;;;3.90;99.90;;;;;;5057767;28;20048;-75
2021/12/08 02:06:02;;;;;;;11.35;5.53;;;4.00;99.90;;;;;;5057963;28;20119;-76
2021/12/08 02:08:29;;;;;;;6.10;3.85;;;4.00;99.90;;;;;;5057725;28;20110;-76
2021/12/08 02:10:55;;;;;;;6.13;4.07;;;4.00;99.90;;;;;;5075501;28;20127;-76
2021/12/08 02:13:22;;;;;;;10.15;6.03;;;4.00;99.90;;;;;;5075127;28;20052;-75
2021/12/08 02:15:48;;;;;;;9.98;5.35;;;4.10;99.90;;;;;;5075318;28;20090;-76
2021/12/08 02:18:15;;;;;;;7.30;5.10;;;4.00;99.90;;;;;;5057683;28;20346;-75
2021/12/08 02:20:45;;;;;;;10.48;5.60;;;4.00;99.90;;;;;;5057936;28;20036;-75
2021/12/08 02:23:11;;;;;;;14.80;6.78;;;4.10;99.90;;;;;;5075114;28;20041;-75
2021/12/08 02:25:37;;;;;;;12.13;5.65;;;4.10;99.90;;;;;;5075240;28;20083;-77
2021/12/08 02:28:07;;;;;;;9.80;5.85;;;4.10;99.90;;;;;;5075346;28;20040;-76
2021/12/08 02:30:42;;;;;;;8.82;6.10;;;4.20;99.90;;;;;;5057309;28;20044;-75
2021/12/08 02:47:16;;;;;;;8.50;5.13;;;4.30;99.90;;;;;;5077324;28;20122;-76
2021/12/08 02:49:42;;;;;;;8.63;5.32;;;4.30;99.90;;;;;;5094889;28;20043;-75
2021/12/08 02:52:11;;;;;;;11.95;6.43;;;4.40;99.90;;;;;;5077357;28;20112;-75
2021/12/08 02:54:41;;;;;;;8.10;5.07;;;4.40;99.90;;;;;;5094793;28;20047;-76
2021/12/08 02:57:09;;;;;;;5.25;3.72;;;4.40;99.90;;;;;;5077357;28;20059;-75
2021/12/08 02:59:35;;;;;;;9.52;5.53;;;4.50;99.90;;;;;;5094873;28;20047;-74
2021/12/08 03:02:02;;;;;;;8.15;4.18;;;4.50;99.90;;;;;;5094857;28;20050;-75
2021/12/08 03:04:28;;;;;;;11.43;7.95;;;4.50;99.90;;;;;;5094787;28;20040;-75
2021/12/08 03:06:54;;;;;;;10.35;6.57;;;4.50;99.90;;;;;;5077080;28;20312;-75
2021/12/08 03:09:20;;;;;;;13.60;6.78;;;4.60;99.90;;;;;;5076534;28;20056;-75
2021/12/08 03:11:48;;;;;;;6.57;3.60;;;4.60;99.90;;;;;;5076475;28;20052;-75
2021/12/08 03:14:15;;;;;;;7.97;4.47;;;4.60;99.90;;;;;;5076743;28;20039;-75
2021/12/08 03:16:50;;;;;;;10.25;6.05;;;4.60;99.90;;;;;;5076741;28;20044;-75
2021/12/08 03:19:18;;;;;;;11.75;5.65;;;4.70;99.90;;;;;;5094355;28;20349;-76
2021/12/08 03:21:44;;;;;;;18.38;6.28;;;4.70;99.90;;;;;;5076813;28;20058;-74
2021/12/08 03:24:22;;;;;;;10.75;4.75;;;4.70;99.90;;;;;;5094319;28;20319;-76
2021/12/08 03:27:08;;;;;;;8.65;5.28;;;4.80;99.90;;;;;;5076682;28;20446;-75
2021/12/08 03:29:48;;;;;;;9.65;6.15;;;4.80;99.90;;;;;;5076330;28;20419;-76
2021/12/08 03:32:17;;;;;;;16.30;8.68;;;4.90;99.90;;;;;;5076594;28;20399;-76
2021/12/08 03:34:52;;;;;;;12.60;7.25;;;4.80;99.90;;;;;;5076372;28;20461;-76
2021/12/08 03:37:26;;;;;;;7.28;4.75;;;4.90;99.90;;;;;;5076358;28;20161;-76
2021/12/08 03:39:54;;;;;;;10.23;7.28;;;4.90;99.90;;;;;;5076212;28;20342;-76
2021/12/08 03:42:23;;;;;;;8.75;6.30;;;4.90;99.90;;;;;;5074551;28;20079;-75
2021/12/08 03:44:51;;;;;;;14.23;8.52;;;4.90;99.90;;;;;;5056244;28;20349;-75
2021/12/08 03:47:18;;;;;;;13.77;7.43;;;4.90;99.90;;;;;;5073560;28;20450;-75
2021/12/08 03:49:47;;;;;;;13.60;8.13;;;4.90;99.90;;;;;;5073444;28;20055;-76
2021/12/08 03:52:12;;;;;;;11.95;7.90;;;4.90;99.90;;;;;;5055987;28;20044;-75
2021/12/08 03:54:38;;;;;;;12.38;8.63;;;5.00;99.90;;;;;;5056014;28;20127;-75
2021/12/08 03:57:06;;;;;;;12.90;8.18;;;5.00;99.90;;;;;;5073371;28;20131;-76
2021/12/08 03:59:32;;;;;;;17.08;8.95;;;5.00;99.90;;;;;;5055909;28;20044;-75
2021/12/08 04:01:58;;;;;;;8.95;6.38;;;5.00;99.90;;;;;;5073524;28;20040;-75
2021/12/08 04:04:27;;;;;;;12.02;7.53;;;5.00;99.90;;;;;;5073285;28;20158;-75
2021/12/08 04:06:55;;;;;;;12.43;6.60;;;5.10;99.90;;;;;;5055747;28;20071;-75
2021/12/08 04:09:38;;;;;;;9.85;6.05;;;5.10;99.90;;;;;;5072971;28;20355;-75
2021/12/08 04:12:05;;;;;;;9.10;6.97;;;5.20;99.90;;;;;;5073173;28;20221;-75
2021/12/08 04:14:38;;;;;;;9.07;7.45;;;5.20;99.90;;;;;;5055573;28;20040;-76
2021/12/08 04:17:26;;;;;;;11.70;7.88;;;5.20;99.90;;;;;;5055553;28;20051;-75
2021/12/08 04:19:54;;;;;;;12.30;8.05;;;5.20;99.90;;;;;;5043003;28;20054;-75
2021/12/08 04:22:31;;;;;;;12.48;8.63;;;5.10;99.90;;;;;;5072593;28;20323;-74
2021/12/08 04:24:57;;;;;;;12.07;7.47;;;5.10;99.90;;;;;;5055400;28;20137;-75
2021/12/08 04:27:34;;;;;;;13.35;8.82;;;5.20;99.90;;;;;;5073053;28;20074;-75
2021/12/08 04:30:00;;;;;;;9.57;7.60;;;5.10;99.90;;;;;;5072533;28;20362;-75
2021/12/08 04:32:28;;;;;;;14.68;9.30;;;5.10;99.90;;;;;;5072802;28;20056;-75
2021/12/08 04:34:59;;;;;;;13.15;7.85;;;5.00;99.90;;;;;;5072833;28;20281;-75
2021/12/08 04:37:29;;;;;;;;;;;5.00;99.90;;;;;;5055724;28;20059;-75
2021/12/08 04:40:33;;;;;;;8.85;5.05;;;5.00;99.90;;;;;;5055193;28;19924;-76
2021/12/08 04:43:14;;;;;;;11.95;7.72;;;5.10;99.90;;;;;;5055175;28;20044;-75
2021/12/08 04:49:06;;;;;;;12.70;9.23;;;5.20;99.90;;;;;;5054799;28;20080;-76
2021/12/08 05:05:22;;;;;;;6.55;5.10;;;5.30;99.90;;;;;;5072403;28;20052;-74
2021/12/08 05:08:11;;;;;;;7.15;3.95;;;5.30;99.90;;;;;;5054958;28;20040;-75
2021/12/08 05:10:38;;;;;;;10.48;6.05;;;5.40;99.90;;;;;;5072079;28;20090;-75
2021/12/08 05:13:07;;;;;;;11.60;5.50;;;5.40;99.90;;;;;;5054945;28;20044;-74
2021/12/08 05:15:40;;;;;;;8.20;4.63;;;5.50;99.90;;;;;;5054593;28;20048;-75
2021/12/08 05:18:31;;;;;;;12.65;6.90;;;5.50;99.90;;;;;;5054800;28;20123;-74
2021/12/08 05:21:09;;;;;;;12.05;6.07;;;5.50;99.90;;;;;;5043293;28;20153;-76
2021/12/08 05:23:39;;;;;;;10.73;5.53;;;5.50;99.90;;;;;;5054674;28;20047;-75
2021/12/08 05:26:13;;;;;;;9.13;5.93;;;5.50;99.90;;;;;;5071659;28;20064;-75
2021/12/08 05:28:40;;;;;;;9.07;5.40;;;5.40;99.90;;;;;;5072055;28;20451;-75
2021/12/08 05:31:11;;;;;;;9.68;6.30;;;5.30;99.90;;;;;;5072147;28;20139;-75
2021/12/08 05:33:40;;;;;;;10.48;5.97;;;5.30;99.90;;;;;;5072407;28;20048;-74
2021/12/08 05:36:06;;;;;;;11.13;6.68;;;5.20;99.90;;;;;;5058672;28;20049;-75
2021/12/08 05:38:32;;;;;;;14.27;5.55;;;5.10;99.90;;;;;;5058138;28;20090;-75
2021/12/08 05:41:09;;;;;;;8.05;4.65;;;5.10;99.90;;;;;;5083989;28;20048;-75
2021/12/08 05:43:35;;;;;;;8.20;6.03;;;5.10;99.90;;;;;;5096386;28;20358;-74
2021/12/08 05:46:02;;;;;;;9.73;5.80;;;5.00;99.90;;;;;;5096148;28;20044;-75
2021/12/08 05:48:30;;;;;;;10.95;5.13;;;5.00;99.90;;;;;;5096164;28;20063;-75
2021/12/08 05:51:08;;;;;;;6.78;4.10;;;4.90;99.90;;;;;;5078437;28;20048;-74
2021/12/08 05:53:37;;;;;;;11.32;5.28;;;4.90;99.90;;;;;;5078341;28;20071;-75
2021/12/08 05:56:04;;;;;;;9.13;4.63;;;4.90;99.90;;;;;;5095958;28;20043;-75
2021/12/08 05:58:30;;;;;;;11.02;5.35;;;4.80;99.90;;;;;;5096074;28;20075;-74
2021/12/08 06:01:12;;;;;;;15.07;6.07;;;4.80;99.90;;;;;;5095810;28;20059;-75
2021/12/08 06:03:40;;;;;;;10.77;4.72;;;4.80;99.90;;;;;;5095973;28;20044;-75
2021/12/08 06:06:06;;;;;;;9.40;4.28;;;4.70;99.90;;;;;;5095926;28;20083;-74
2021/12/08 06:08:32;;;;;;;16.83;7.00;;;4.80;99.90;;;;;;5095492;28;20040;-75
2021/12/08 06:11:01;;;;;;;6.07;3.58;;;4.80;99.90;;;;;;5095645;28;20126;-75
2021/12/08 06:13:27;;;;;;;7.15;4.07;;;4.80;99.90;;;;;;5095813;28;20128;-75
2021/12/08 06:15:54;;;;;;;14.18;5.47;;;4.90;99.90;;;;;;5095651;28;20100;-74
2021/12/08 06:18:24;;;;;;;6.45;3.40;;;5.00;99.90;;;;;;5095619;28;20330;-75
2021/12/08 06:20:54;;;;;;;11.25;4.47;;;5.00;99.90;;;;;;5077673;28;20048;-76
2021/12/08 06:23:20;;;;;;;8.95;4.57;;;5.00;99.90;;;;;;5095604;28;20105;-75
2021/12/08 06:25:47;;;;;;;6.15;3.38;;;5.00;99.90;;;;;;5095510;28;20044;-75
2021/12/08 06:28:12;;;;;;;8.23;3.90;;;5.00;99.90;;;;;;5095623;28;20331;-75
2021/12/08 06:30:45;;;;;;;7.72;3.75;;;5.00;99.90;;;;;;5086639;28;20113;-75
2021/12/08 06:33:14;;;;;;;7.43;3.17;;;4.90;99.90;;;;;;5089640;28;20123;-74
2021/12/08 06:35:46;;;;;;;7.35;4.10;;;5.00;99.90;;;;;;5058542;28;20511;-74
2021/12/08 06:38:14;;;;;;;7.82;4.13;;;5.00;99.90;;;;;;5079553;28;20040;-74
2021/12/08 06:40:48;;;;;;;8.25;4.50;;;5.00;99.90;;;;;;5095099;28;20361;-75
2021/12/08 06:43:20;;;;;;;12.38;4.38;;;5.00;99.90;;;;;;5095065;28;20052;-75
2021/12/08 06:45:49;;;;;;;5.00;2.40;;;5.00;99.90;;;;;;5094256;28;20040;-75
2021/12/08 06:48:22;;;;;;;5.30;2.97;;;5.10;99.90;;;;;;5060226;28;20063;-75
2021/12/08 06:51:06;;;;;;;6.55;3.17;;;5.10;99.90;;;;;;5057018;28;20048;-75
2021/12/08 06:53:33;;;;;;;7.10;3.95;;;5.10;99.90;;;;;;5074834;28;20044;-74
2021/12/08 06:56:10;;;;;;;9.07;2.85;;;5.10;99.90;;;;;;5057129;28;20591;-75
2021/12/08 06:58:41;;;;;;;9.10;4.97;;;5.10;99.90;;;;;;5074663;28;20338;-75
2021/12/08 07:01:22;;;;;;;6.30;2.92;;;5.00;99.90;;;;;;5056652;28;20106;-75
2021/12/08 07:09:20;;;;;;;6.45;3.20;;;5.10;99.90;;;;;;5094168;28;20052;-76
2021/12/08 07:11:49;;;;;;;8.48;3.25;;;5.10;99.90;;;;;;5094429;28;20044;-75
2021/12/08 07:14:16;;;;;;;8.85;3.33;;;5.20;99.90;;;;;;5094755;28;20040;-75
2021/12/08 07:16:46;;;;;;;8.30;3.40;;;5.20;99.90;;;;;;5094428;28;20122;-75
2021/12/08 07:19:51;;;;;;;2.75;1.23;;;5.20;99.90;;;;;;5076849;28;20055;-75
2021/12/08 07:22:27;;;;;;;3.53;1.90;;;5.20;99.90;;;;;;5094481;28;20048;-75
2021/12/08 07:24:56;;;;;;;4.97;2.63;;;5.10;99.90;;;;;;5094459;28;20438;-74
2021/12/08 07:27:25;;;;;;;4.10;1.83;;;5.10;99.90;;;;;;5094241;28;20123;-75
2021/12/08 07:29:52;;;;;;;6.40;2.08;;;5.00;99.90;;;;;;5094436;28;20106;-75
2021/12/08 07:32:25;;;;;;;8.07;3.40;;;5.00;99.90;;;;;;5094200;28;20075;-74
2021/12/08 07:34:52;;;;;;;7.38;2.20;;;5.00;99.90;;;;;;5076515;28;20767;-75
2021/12/08 07:37:23;;;;;;;3.45;1.52;;;5.00;99.90;;;;;;5075772;28;20054;-74
2021/12/08 07:39:58;;;;;;;5.97;2.50;;;5.10;99.90;;;;;;5056365;28;20169;-75
2021/12/08 07:42:34;;;;;;;6.05;2.28;;;5.10;99.90;;;;;;5056053;28;20094;-75
2021/12/08 07:45:07;;;;;;;4.20;1.52;;;5.10;99.90;;;;;;5056322;28;20508;-74
2021/12/08 07:47:33;;;;;;;6.53;2.00;;;5.10;99.90;;;;;;5073749;28;20044;-76
2021/12/08 07:50:11;;;;;;;8.13;2.53;;;5.10;99.90;;;;;;5055790;28;20105;-75
2021/12/08 07:52:43;;;;;;;8.52;2.60;;;5.10;99.90;;;;;;5056092;28;20430;-74
2021/12/08 07:55:20;;;;;;;4.30;1.40;;;5.00;99.90;;;;;;5055992;28;20120;-75
2021/12/08 07:57:47;;;;;;;4.63;1.63;;;4.90;99.90;;;;;;5072703;28;20061;-75
2021/12/08 08:00:23;;;;;;;7.95;1.90;;;4.90;99.90;;;;;;5073488;28;20311;-74
2021/12/08 08:02:51;;;;;;;6.70;1.30;;;5.00;99.90;;;;;;5073279;28;20115;-75
2021/12/08 08:05:19;;;;;;;5.10;2.22;;;4.90;99.90;;;;;;5055507;28;20048;-75
2021/12/08 08:07:47;;;;;;;5.55;1.60;;;4.90;99.90;;;;;;5073046;28;20060;-75
2021/12/08 08:10:15;;;;;;;3.83;1.90;;;4.90;99.90;;;;;;5072993;28;20396;-75
2021/12/08 08:12:44;;;;;;;10.80;2.08;;;4.90;99.90;;;;;;5055678;28;20338;-74
2021/12/08 08:15:16;;;;;;;16.57;2.47;;;4.90;99.90;;;;;;5073125;28;20131;-74
2021/12/08 08:17:45;;;;;;;3.95;1.38;;;4.90;99.90;;;;;;5072886;28;20048;-75
2021/12/08 08:20:25;;;;;;;7.75;1.55;;;4.90;99.90;;;;;;5055631;28;20521;-74
2021/12/08 08:22:51;;;;;;;3.28;1.80;;;4.90;99.90;;;;;;5073076;28;20438;-74
2021/12/08 08:25:21;;;;;;;7.30;1.30;;;4.90;99.90;;;;;;5073121;28;20044;-75
2021/12/08 08:27:48;;;;;;;4.95;1.63;;;4.90;99.90;;;;;;5055770;28;20044;-74
2021/12/08 08:30:23;;;;;;;2.35;1.20;;;4.80;99.90;;;;;;5055866;28;20359;-74
2021/12/08 08:32:52;;;;;;;4.60;2.13;;;4.80;99.90;;;;;;5039273;28;20098;-73
2021/12/08 08:35:30;;;;;;;9.45;1.80;;;4.80;99.90;;;;;;5072950;28;20434;-74
2021/12/08 08:37:59;;;;;;;7.38;2.05;;;4.80;99.90;;;;;;5055369;28;20052;-74
2021/12/08 08:40:37;;;;;;;3.42;1.27;;;4.80;99.90;;;;;;5073118;28;20045;-74
2021/12/08 08:43:05;;;;;;;10.55;2.08;;;4.90;99.90;;;;;;5055259;28;20048;-73
2021/12/08 08:45:51;;;;;;;7.00;1.55;;;4.90;99.90;;;;;;5072935;28;20075;-74
2021/12/08 08:48:21;;;;;;;5.68;1.30;;;4.80;99.90;;;;;;5072645;28;20400;-74
2021/12/08 08:50:59;;;;;;;4.70;0.70;;;4.90;99.90;;;;;;5072395;28;20101;-74
2021/12/08 08:53:30;;;;;;;9.05;1.40;;;4.90;99.90;;;;;;5072894;28;20044;-76
2021/12/08 08:56:03;;;;;;;3.17;1.08;;;4.90;99.90;;;;;;5055298;28;20113;-74
2021/12/08 08:58:31;;;;;;;4.45;1.38;;;4.90;99.90;;;;;;5072732;28;20045;-74
2021/12/08 09:01:04;;;;;;;4.30;1.38;;;4.90;99.90;;;;;;5055075;28;20079;-72
2021/12/08 09:03:34;;;;;;;8.80;1.48;;;4.90;99.90;;;;;;5072649;28;20052;-74
2021/12/08 09:06:08;;;;;;;4.05;1.27;;;4.90;99.90;;;;;;5072628;28;20048;-74
2021/12/08 09:08:36;;;;;;;6.28;1.17;;;5.00;99.90;;;;;;5072020;28;20132;-77
2021/12/08 09:11:22;;;;;;;6.22;1.40;;;5.00;99.90;;;;;;5054987;28;20105;-76
2021/12/08 09:14:05;;;;;;;4.22;1.58;;;5.00;99.90;;;;;;5073008;28;20044;-74
2021/12/08 09:16:35;;;;;;;5.25;1.20;;;5.00;99.90;;;;;;5055223;28;20087;-74
2021/12/08 09:19:07;;;;;;;;;;;5.00;99.90;;;;;;5055561;28;20048;-75
2021/12/08 09:22:00;;;;;;;7.65;1.90;;;5.00;99.90;;;;;;5072549;28;19982;-74
2021/12/08 09:24:44;;;;;;;5.45;1.35;;;5.00;99.90;;;;;;5055119;28;20350;-74
2021/12/08 09:27:12;;;;;;;5.85;2.25;;;5.00;99.90;;;;;;5072450;28;20044;-74
2021/12/08 09:29:44;;;;;;;5.47;1.42;;;5.40;99.90;;;;;;5072386;28;20047;-74
2021/12/08 09:32:19;;;;;;;8.40;3.42;;;5.60;99.90;;;;;;5054919;28;20051;-74
2021/12/08 09:34:58;;;;;;;5.40;1.70;;;5.50;99.90;;;;;;5072782;28;20051;-74
2021/12/08 09:37:36;;;;;;;5.88;1.83;;;5.60;99.90;;;;;;5073277;28;20350;-73
2021/12/08 09:40:08;;;;;;;5.78;2.90;;;5.50;99.90;;;;;;5092926;28;20453;-75
2021/12/08 09:42:41;;;;;;;6.28;1.45;;;5.60;99.90;;;;;;5092960;28;20046;-75
2021/12/08 09:45:14;;;;;;;5.70;1.98;;;5.60;99.90;;;;;;5093173;28;20046;-74
2021/12/08 09:47:41;;;;;;;5.70;2.60;;;5.60;99.90;;;;;;5092768;28;20047;-74
2021/12/08 09:50:09;;;;;;;11.15;2.72;;;5.60;99.90;;;;;;5093117;28;20095;-74
2021/12/08 09:52:36;;;;;;;6.82;1.88;;;5.60;99.90;;;;;;5093393;28;20052;-73
2021/12/08 09:55:03;;;;;;;10.20;3.38;;;5.60;99.90;;;;;;5093068;28;20039;-75
2021/12/08 09:57:30;;;;;;;6.30;2.13;;;5.70;99.90;;;;;;5075356;28;20361;-73
2021/12/08 09:59:56;;;;;;;8.45;1.95;;;5.90;99.90;;;;;;5075053;28;20051;-74
2021/12/08 10:02:32;;;;;;;3.20;1.42;;;6.20;99.90;;;;;;5092894;28;20047;-74
2021/12/08 10:05:03;;;;;;;9.45;2.20;;;6.60;99.90;;;;;;5075004;28;20051;-73
2021/12/08 10:07:29;;;;;;;;;;;7.20;99.90;;;;;;5093090;28;20044;-74
2021/12/08 10:09:55;;;;;;;9.25;3.08;;;7.90;99.90;;;;;;5091848;28;20059;-74
2021/12/08 10:12:22;;;;;;;6.35;2.50;;;8.30;99.90;;;;;;5091946;28;20145;-74
2021/12/08 10:14:50;;;;;;;6.65;2.88;;;8.70;99.90;;;;;;5092156;28;20036;-74
2021/12/08 10:17:17;;;;;;;2.47;1.50;;;8.90;99.90;;;;;;5091941;28;20055;-74
2021/12/08 10:19:46;;;;;;;6.00;2.05;;;8.90;99.90;;;;;;5091924;28;20083;-73
2021/12/08 10:22:20;;;;;;;5.45;2.13;;;8.80;99.90;;;;;;5094562;28;20345;-74
2021/12/08 10:25:06;;;;;;;9.35;1.90;;;8.90;99.90;;;;;;5095643;28;20043;-74
2021/12/08 10:27:52;;;;;;;7.88;2.20;;;9.00;99.90;;;;;;5095428;28;20040;-74
2021/12/08 10:30:23;;;;;;;5.28;1.90;;;9.00;99.90;;;;;;5077339;28;20056;-74
2021/12/08 10:32:50;;;;;;;6.32;1.33;;;9.00;99.90;;;;;;5095409;28;20061;-73
2021/12/08 10:35:49;;;;;;;3.75;1.10;;;8.50;99.90;;;;;;5095252;28;20040;-76
2021/12/08 10:38:19;;;;;;;7.03;1.58;;;8.00;99.90;;;;;;5070514;28;20324;-74
2021/12/08 10:41:00;;;;;;;4.93;1.38;;;7.60;99.90;;;;;;5057637;28;20071;-74
2021/12/08 10:43:27;;;;;;;4.57;1.48;;;7.20;99.90;;;;;;5074775;28;20036;-73
2021/12/08 10:46:10;;;;;;;6.03;1.58;;;6.90;99.90;;;;;;5074856;28;20032;-73
2021/12/08 10:48:43;;;;;;;5.53;1.80;;;6.70;99.90;;;;;;5074618;28;20045;-74
2021/12/08 10:54:30;;;;;;;7.68;1.50;;;6.50;99.90;;;;;;5074611;28;20049;-73
2021/12/08 10:56:58;;;;;;;10.70;1.80;;;6.40;99.90;;;;;;5057328;28;20047;-73
2021/12/08 10:59:26;;;;;;;5.80;1.95;;;6.30;99.90;;;;;;5074744;28;20033;-72
2021/12/08 11:01:53;;;;;;;5.40;1.52;;;6.30;99.90;;;;;;5057056;28;20040;-74
2021/12/08 11:04:29;;;;;;;4.18;1.27;;;6.30;99.90;;;;;;5074316;28;20045;-73
2021/12/08 11:07:06;;;;;;;5.65;1.23;;;6.30;99.90;;;;;;5074560;28;20057;-73
2021/12/08 11:09:42;;;;;;;9.05;2.28;;;6.30;99.90;;;;;;5074270;28;20059;-73
2021/12/08 11:12:08;;;;;;;7.60;1.50;;;6.30;99.90;;;;;;5074615;28;20044;-72
2021/12/08 11:14:50;;;;;;;3.17;1.30;;;6.30;99.90;;;;;;5074352;28;20212;-73
2021/12/08 11:17:28;;;;;;;15.23;3.60;;;6.30;99.90;;;;;;5074392;28;20182;-73
2021/12/08 11:20:18;;;;;;;10.25;2.33;;;6.30;99.90;;;;;;5056763;28;20055;-72
2021/12/08 11:22:57;;;;;;;10.00;3.00;;;6.30;99.90;;;;;;5056386;28;20346;-73
2021/12/08 11:25:35;;;;;;;5.33;1.97;;;6.40;99.90;;;;;;5074352;28;20398;-73
2021/12/08 11:28:29;;;;;;;6.18;2.08;;;6.40;99.90;;;;;;5074080;28;20271;-72
2021/12/08 11:31:07;;;;;;;6.30;1.85;;;6.50;99.90;;;;;;5074172;28;20313;-73
2021/12/08 11:33:36;;;;;;;6.47;1.88;;;6.50;99.90;;;;;;5073647;28;20361;-73
2021/12/08 11:36:18;;;;;;;7.28;2.30;;;6.60;99.90;;;;;;5073908;28;20357;-72
2021/12/08 11:38:46;;;;;;;8.68;2.42;;;6.50;99.90;;;;;;5084899;28;20453;-73
2021/12/08 11:41:52;;;;;;;10.45;3.00;;;6.50;99.90;;;;;;5094250;28;20040;-73
2021/12/08 11:44:27;;;;;;;5.25;1.58;;;6.50;99.90;;;;;;5093927;28;20075;-73
2021/12/08 11:46:54;;;;;;;11.75;2.15;;;6.50;99.90;;;;;;5094083;28;20213;-73
2021/12/08 11:49:22;;;;;;;4.63;2.05;;;6.40;99.90;;;;;;5093884;28;20050;-74
2021/12/08 11:51:59;;;;;;;4.82;2.00;;;6.40;99.90;;;;;;5094095;28;20059;-74
2021/12/08 11:54:25;;;;;;;5.55;1.63;;;6.30;99.90;;;;;;5093582;28;20389;-74
2021/12/08 11:56:51;;;;;;;7.18;1.80;;;6.30;99.90;;;;;;5093896;28;20036;-73
2021/12/08 11:59:17;;;;;;;4.18;1.38;;;6.30;99.90;;;;;;5093828;28;20113;-73
2021/12/08 12:01:43;;;;;;;7.93;2.92;;;6.30;99.90;;;;;;5076097;28;20378;-73
2021/12/08 12:04:10;;;;;;;4.50;1.30;;;6.30;99.90;;;;;;5093753;28;20044;-74
2021/12/08 12:06:37;;;;;;;4.03;1.73;;;6.30;99.90;;;;;;5075775;28;20405;-73
2021/12/08 12:09:05;;;;;;;4.38;1.75;;;6.30;99.90;;;;;;5088950;28;20104;-73
2021/12/08 12:11:31;;;;;;;5.70;1.30;;;6.30;99.90;;;;;;5106161;28;20126;-74
2021/12/08 12:13:59;;;;;;;3.42;1.38;;;6.30;99.90;;;;;;5109394;28;20051;-72
2021/12/08 12:16:25;;;;;;;9.05;2.33;;;6.30;99.90;;;;;;5095237;28;20051;-72
2021/12/08 12:18:55;;;;;;;3.33;1.27;;;6.30;99.90;;;;;;5113797;28;20059;-73
2021/12/08 12:21:46;;;;;;;2.72;1.90;;;6.30;99.90;;;;;;5110529;28;20342;-73
2021/12/08 12:24:33;;;;;;;;;;;6.30;99.90;;;;;;5113919;28;20047;-73
2021/12/08 12:27:17;;;;;;;8.15;2.20;;;6.30;99.90;;;;;;5105777;28;19923;-72
2021/12/08 12:30:01;;;;;;;7.50;1.95;;;6.30;99.90;;;;;;5092827;28;20102;-73
2021/12/08 12:32:34;;;;;;;3.83;1.60;;;6.30;99.90;;;;;;5093149;28;20044;-73
2021/12/08 12:35:21;;;;;;;8.63;1.73;;;6.30;99.90;;;;;;5092981;28;20077;-73
2021/12/08 12:37:58;;;;;;;6.82;1.88;;;6.20;99.90;;;;;;5092810;28;20070;-74
2021/12/08 12:40:32;;;;;;;4.05;1.75;;;6.20;99.90;;;;;;5092749;28;20720;-73
2021/12/08 12:42:59;;;;;;;5.32;1.48;;;6.30;99.90;;;;;;5092568;28;20453;-73
2021/12/08 12:45:33;;;;;;;10.57;1.80;;;6.30;99.90;;;;;;5092417;28;20051;-72
2021/12/08 12:48:16;;;;;;;7.47;1.85;;;6.30;99.90;;;;;;5092912;28;20043;-72
2021/12/08 12:51:06;;;;;;;10.05;2.58;;;6.30;99.90;;;;;;5092414;28;20358;-72
2021/12/08 12:53:33;;;;;;;5.57;2.10;;;6.30;99.90;;;;;;5092834;28;20040;-73
2021/12/08 12:55:59;;;;;;;8.93;2.00;;;6.30;99.90;;;;;;5092669;28;20044;-72
2021/12/08 12:58:42;;;;;;;7.00;0.90;;;6.30;99.90;;;;;;5092800;28;20050;-72
2021/12/08 13:01:11;;;;;;;3.75;2.17;;;6.40;99.90;;;;;;5092641;28;20052;-72
2021/12/08 13:03:50;;;;;;;6.72;2.22;;;6.40;99.90;;;;;;5081792;28;20039;-77
2021/12/08 13:06:40;;;;;;;4.68;1.60;;;6.50;99.90;;;;;;5088949;28;20039;-72
2021/12/08 13:09:09;;;;;;;5.93;1.50;;;6.50;99.90;;;;;;5112535;28;20154;-72
2021/12/08 13:11:58;;;;;;;4.22;1.70;;;6.50;99.90;;;;;;5112874;28;20122;-73
2021/12/08 13:14:30;;;;;;;3.05;1.40;;;6.50;99.90;;;;;;5112774;28;20048;-72
2021/12/08 13:17:19;;;;;;;4.63;2.25;;;6.60;99.90;;;;;;5112824;28;20035;-72
2021/12/08 13:19:56;;;;;;;5.10;1.50;;;6.60;99.90;;;;;;5112594;28;20051;-73
2021/12/08 13:22:45;;;;;;;5.85;1.48;;;6.60;99.90;;;;;;5112670;28;20074;-74
2021/12/08 13:25:26;;;;;;;3.08;1.30;;;6.60;99.90;;;;;;5112813;28;20048;-74
2021/12/08 13:27:54;;;;;;;7.95;1.67;;;6.60;99.90;;;;;;5083254;28;20046;-74
2021/12/08 13:30:21;;;;;;;6.63;2.20;;;6.50;99.90;;;;;;5091827;28;20438;-73
2021/12/08 13:32:57;;;;;;;6.95;2.13;;;6.50;99.90;;;;;;5074667;28;20059;-74
2021/12/08 13:35:36;;;;;;;7.68;1.45;;;6.70;99.90;;;;;;5092256;28;20075;-73
2021/12/08 13:38:03;;;;;;;6.45;1.63;;;6.80;99.90;;;;;;5086531;28;20454;-75
2021/12/08 13:40:50;;;;;;;5.07;1.65;;;6.90;99.90;;;;;;5071829;28;20041;-73
2021/12/08 13:43:32;;;;;;;6.57;1.50;;;6.90;99.90;;;;;;5072099;28;20093;-73
2021/12/08 13:45:58;;;;;;;3.63;1.17;;;6.90;99.90;;;;;;5071997;28;20106;-73
2021/12/08 13:48:24;;;;;;;5.43;1.40;;;6.90;99.90;;;;;;5072164;28;20412;-73
2021/12/08 13:50:51;;;;;;;3.92;1.08;;;6.80;99.90;;;;;;5071394;28;20036;-74
2021/12/08 13:53:17;;;;;;;6.05;2.55;;;6.70;99.90;;;;;;5071614;28;20080;-73
2021/12/08 13:55:59;;;;;;;6.43;2.65;;;6.70;99.90;;;;;;5073917;28;20052;-73
2021/12/08 13:58:24;;;;;;;4.82;1.85;;;6.70;99.90;;;;;;5075498;28;20044;-74
2021/12/08 14:01:02;;;;;;;3.83;2.00;;;6.60;99.90;;;;;;5075657;28;20051;-74